sensor_id;sensor_type;location;lat;lon;timestamp;pressure;altitude;pressure_sealevel;temperature;humidity
54978;BME280;40873;47.522;19.106;2023-07-02T00:00:08;99341.91;;;21.11;100.00
54978;BME280;40873;47.522;19.106;2023-07-02T00:02:36;99339.63;;;21.07;100.00
54978;BME280;40873;47.522;19.106;2023-07-02T00:05:05;99337.09;;;21.06;100.00
54978;BME280;40873;47.522;19.106;2023-07-02T00:07:32;99337.91;;;21.06;100.00
54978;BME280;40873;47.522;19.106;2023-07-02T00:10:02;99337.00;;;20.99;100.00
54978;BME280;40873;47.522;19.106;2023-07-02T00:12:29;99343.19;;;21.00;100.00
54978;BME280;40873;47.522;19.106;2023-07-02T00:14:56;99334.50;;;20.98;100.00
54978;BME280;40873;47.522;19.106;2023-07-02T00:17:23;99337.56;;;20.95;100.00
54978;BME280;40873;47.522;19.106;2023-07-02T00:19:50;99334.78;;;20.88;100.00
54978;BME280;40873;47.522;19.106;2023-07-02T00:22:19;99336.63;;;20.88;100.00
54978;BME280;40873;47.522;19.106;2023-07-02T00:24:47;99337.47;;;20.88;100.00
54978;BME280;40873;47.522;19.106;2023-07-02T00:27:14;99335.81;;;20.87;100.00
54978;BME280;40873;47.522;19.106;2023-07-02T00:29:41;99337.91;;;20.92;100.00
54978;BME280;40873;47.522;19.106;2023-07-02T00:32:08;99331.47;;;20.86;100.00
54978;BME280;40873;47.522;19.106;2023-07-02T00:34:35;99333.66;;;20.83;100.00
54978;BME280;40873;47.522;19.106;2023-07-02T00:37:02;99330.34;;;20.80;100.00
54978;BME280;40873;47.522;19.106;2023-07-02T00:39:29;99329.97;;;20.84;100.00
54978;BME280;40873;47.522;19.106;2023-07-02T00:42:02;99336.97;;;20.85;100.00
54978;BME280;40873;47.522;19.106;2023-07-02T00:44:31;99329.97;;;20.84;100.00
54978;BME280;40873;47.522;19.106;2023-07-02T00:46:58;99327.66;;;20.80;100.00
54978;BME280;40873;47.522;19.106;2023-07-02T00:49:25;99333.19;;;20.79;100.00
54978;BME280;40873;47.522;19.106;2023-07-02T00:51:53;99328.19;;;20.76;100.00
54978;BME280;40873;47.522;19.106;2023-07-02T00:54:21;99325.31;;;20.77;100.00
54978;BME280;40873;47.522;19.106;2023-07-02T00:56:47;99331.72;;;20.76;100.00
54978;BME280;40873;47.522;19.106;2023-07-02T00:59:15;99333.94;;;20.73;100.00
54978;BME280;40873;47.522;19.106;2023-07-02T01:01:42;99337.59;;;20.72;100.00
54978;BME280;40873;47.522;19.106;2023-07-02T01:04:09;99344.00;;;20.71;100.00
54978;BME280;40873;47.522;19.106;2023-07-02T01:06:39;99340.97;;;20.74;100.00
54978;BME280;40873;47.522;19.106;2023-07-02T01:09:10;99334.75;;;20.73;100.00
54978;BME280;40873;47.522;19.106;2023-07-02T01:11:45;99338.47;;;20.72;100.00
54978;BME280;40873;47.522;19.106;2023-07-02T01:14:22;99337.97;;;20.69;100.00
54978;BME280;40873;47.522;19.106;2023-07-02T01:16:52;99344.19;;;20.69;100.00
54978;BME280;40873;47.522;19.106;2023-07-02T01:22:20;99345.84;;;20.70;100.00
54978;BME280;40873;47.522;19.106;2023-07-02T01:24:48;99345.00;;;20.70;100.00
54978;BME280;40873;47.522;19.106;2023-07-02T01:27:16;99338.63;;;20.71;100.00
54978;BME280;40873;47.522;19.106;2023-07-02T01:29:43;99340.66;;;20.69;100.00
54978;BME280;40873;47.522;19.106;2023-07-02T01:32:14;99335.94;;;20.71;100.00
54978;BME280;40873;47.522;19.106;2023-07-02T01:34:41;99340.84;;;20.67;100.00
54978;BME280;40873;47.522;19.106;2023-07-02T01:37:10;99339.66;;;20.70;100.00
54978;BME280;40873;47.522;19.106;2023-07-02T01:39:37;99341.19;;;20.64;100.00
54978;BME280;40873;47.522;19.106;2023-07-02T01:42:09;99344.25;;;20.61;100.00
54978;BME280;40873;47.522;19.106;2023-07-02T01:44:37;99347.56;;;20.63;100.00
54978;BME280;40873;47.522;19.106;2023-07-02T01:47:05;99339.91;;;20.60;100.00
54978;BME280;40873;47.522;19.106;2023-07-02T01:49:32;99348.50;;;20.56;100.00
54978;BME280;40873;47.522;19.106;2023-07-02T01:51:59;99340.63;;;20.54;100.00
54978;BME280;40873;47.522;19.106;2023-07-02T01:54:27;99347.13;;;20.60;100.00
54978;BME280;40873;47.522;19.106;2023-07-02T01:56:55;99339.81;;;20.53;100.00
54978;BME280;40873;47.522;19.106;2023-07-02T01:59:23;99335.09;;;20.56;100.00
54978;BME280;40873;47.522;19.106;2023-07-02T02:01:50;99343.31;;;20.54;100.00
54978;BME280;40873;47.522;19.106;2023-07-02T02:04:18;99336.81;;;20.48;100.00
54978;BME280;40873;47.522;19.106;2023-07-02T02:06:45;99334.19;;;20.40;100.00
54978;BME280;40873;47.522;19.106;2023-07-02T02:09:12;99335.03;;;20.41;100.00
54978;BME280;40873;47.522;19.106;2023-07-02T02:11:42;99339.72;;;20.39;100.00
54978;BME280;40873;47.522;19.106;2023-07-02T02:14:09;99338.59;;;20.33;100.00
54978;BME280;40873;47.522;19.106;2023-07-02T02:16:36;99335.94;;;20.33;100.00
54978;BME280;40873;47.522;19.106;2023-07-02T02:19:04;99334.72;;;20.36;100.00
54978;BME280;40873;47.522;19.106;2023-07-02T02:21:31;99339.06;;;20.37;100.00
54978;BME280;40873;47.522;19.106;2023-07-02T02:23:59;99328.22;;;20.30;100.00
54978;BME280;40873;47.522;19.106;2023-07-02T02:26:25;99336.00;;;20.25;100.00
54978;BME280;40873;47.522;19.106;2023-07-02T02:28:53;99335.31;;;20.23;100.00
54978;BME280;40873;47.522;19.106;2023-07-02T02:31:20;99327.13;;;20.24;100.00
54978;BME280;40873;47.522;19.106;2023-07-02T02:33:47;99320.97;;;20.16;100.00
54978;BME280;40873;47.522;19.106;2023-07-02T02:36:15;99318.50;;;20.14;100.00
54978;BME280;40873;47.522;19.106;2023-07-02T02:38:42;99331.75;;;20.08;100.00
54978;BME280;40873;47.522;19.106;2023-07-02T02:41:09;99317.91;;;20.04;100.00
54978;BME280;40873;47.522;19.106;2023-07-02T02:43:37;99326.09;;;20.03;100.00
54978;BME280;40873;47.522;19.106;2023-07-02T02:46:04;99323.41;;;20.03;100.00
54978;BME280;40873;47.522;19.106;2023-07-02T02:48:31;99316.97;;;19.97;100.00
54978;BME280;40873;47.522;19.106;2023-07-02T02:50:57;99318.44;;;19.99;100.00
54978;BME280;40873;47.522;19.106;2023-07-02T02:53:26;99318.63;;;19.98;100.00
54978;BME280;40873;47.522;19.106;2023-07-02T02:55:52;99321.75;;;20.02;100.00
54978;BME280;40873;47.522;19.106;2023-07-02T02:58:20;99321.28;;;19.98;100.00
54978;BME280;40873;47.522;19.106;2023-07-02T03:00:49;99322.47;;;19.95;100.00
54978;BME280;40873;47.522;19.106;2023-07-02T03:03:16;99323.78;;;19.99;100.00
54978;BME280;40873;47.522;19.106;2023-07-02T03:05:47;99323.00;;;19.91;100.00
54978;BME280;40873;47.522;19.106;2023-07-02T03:08:15;99320.84;;;19.86;100.00
54978;BME280;40873;47.522;19.106;2023-07-02T03:10:42;99323.72;;;19.85;100.00
54978;BME280;40873;47.522;19.106;2023-07-02T03:13:09;99323.53;;;19.86;100.00
54978;BME280;40873;47.522;19.106;2023-07-02T03:15:36;99323.00;;;19.91;100.00
54978;BME280;40873;47.522;19.106;2023-07-02T03:18:03;99327.59;;;19.82;100.00
54978;BME280;40873;47.522;19.106;2023-07-02T03:20:30;99330.28;;;19.82;100.00
54978;BME280;40873;47.522;19.106;2023-07-02T03:22:58;99327.09;;;19.79;100.00
54978;BME280;40873;47.522;19.106;2023-07-02T03:25:24;99326.09;;;19.80;100.00
54978;BME280;40873;47.522;19.106;2023-07-02T03:27:52;99326.91;;;19.80;100.00
54978;BME280;40873;47.522;19.106;2023-07-02T03:30:18;99329.25;;;19.83;100.00
54978;BME280;40873;47.522;19.106;2023-07-02T03:32:46;99338.59;;;19.87;100.00
54978;BME280;40873;47.522;19.106;2023-07-02T03:35:13;99328.69;;;19.88;100.00
54978;BME280;40873;47.522;19.106;2023-07-02T03:37:40;99331.38;;;19.88;100.00
54978;BME280;40873;47.522;19.106;2023-07-02T03:40:10;99336.41;;;19.91;100.00
54978;BME280;40873;47.522;19.106;2023-07-02T03:42:37;99338.53;;;19.95;100.00
54978;BME280;40873;47.522;19.106;2023-07-02T03:45:05;99348.25;;;19.96;100.00
54978;BME280;40873;47.522;19.106;2023-07-02T03:47:32;99340.88;;;19.98;100.00
54978;BME280;40873;47.522;19.106;2023-07-02T03:49:59;99343.84;;;20.04;100.00
54978;BME280;40873;47.522;19.106;2023-07-02T03:52:26;99344.00;;;20.02;100.00
54978;BME280;40873;47.522;19.106;2023-07-02T03:54:53;99348.66;;;20.08;100.00
54978;BME280;40873;47.522;19.106;2023-07-02T03:57:20;99349.03;;;20.05;100.00
54978;BME280;40873;47.522;19.106;2023-07-02T03:59:47;99351.50;;;20.07;100.00
54978;BME280;40873;47.522;19.106;2023-07-02T04:02:15;99355.66;;;20.09;100.00
54978;BME280;40873;47.522;19.106;2023-07-02T04:04:42;99353.19;;;20.08;100.00
54978;BME280;40873;47.522;19.106;2023-07-02T04:07:09;99347.81;;;20.08;100.00
54978;BME280;40873;47.522;19.106;2023-07-02T04:09:36;99353.66;;;20.11;100.00
54978;BME280;40873;47.522;19.106;2023-07-02T04:12:03;99344.31;;;20.07;100.00
54978;BME280;40873;47.522;19.106;2023-07-02T04:14:30;99353.28;;;20.14;100.00
54978;BME280;40873;47.522;19.106;2023-07-02T04:16:57;99355.97;;;20.14;100.00
54978;BME280;40873;47.522;19.106;2023-07-02T04:19:24;99360.50;;;20.14;100.00
54978;BME280;40873;47.522;19.106;2023-07-02T04:21:52;99360.31;;;20.15;100.00
54978;BME280;40873;47.522;19.106;2023-07-02T04:24:19;99359.16;;;20.18;100.00
54978;BME280;40873;47.522;19.106;2023-07-02T04:26:46;99363.13;;;20.22;100.00
54978;BME280;40873;47.522;19.106;2023-07-02T04:29:33;99365.28;;;20.26;99.87
54978;BME280;40873;47.522;19.106;2023-07-02T04:32:00;99369.41;;;20.29;100.00
54978;BME280;40873;47.522;19.106;2023-07-02T04:34:27;99369.28;;;20.31;100.00
54978;BME280;40873;47.522;19.106;2023-07-02T04:36:55;99366.34;;;20.40;100.00
54978;BME280;40873;47.522;19.106;2023-07-02T04:39:22;99370.19;;;20.46;99.55
54978;BME280;40873;47.522;19.106;2023-07-02T04:41:49;99371.13;;;20.53;100.00
54978;BME280;40873;47.522;19.106;2023-07-02T04:44:19;99365.31;;;20.64;98.47
54978;BME280;40873;47.522;19.106;2023-07-02T04:46:49;99371.28;;;20.74;96.85
54978;BME280;40873;47.522;19.106;2023-07-02T04:49:15;99376.38;;;20.84;97.54
54978;BME280;40873;47.522;19.106;2023-07-02T04:51:43;99387.09;;;20.99;94.99
54978;BME280;40873;47.522;19.106;2023-07-02T04:54:09;99380.91;;;20.98;94.61
54978;BME280;40873;47.522;19.106;2023-07-02T04:56:37;99391.75;;;21.05;94.37
54978;BME280;40873;47.522;19.106;2023-07-02T04:59:04;99379.06;;;21.14;93.81
54978;BME280;40873;47.522;19.106;2023-07-02T05:01:31;99380.88;;;21.21;91.78
54978;BME280;40873;47.522;19.106;2023-07-02T05:03:58;99389.28;;;21.33;90.77
54978;BME280;40873;47.522;19.106;2023-07-02T05:06:25;99384.84;;;21.40;88.96
54978;BME280;40873;47.522;19.106;2023-07-02T05:08:52;99393.56;;;21.42;89.25
54978;BME280;40873;47.522;19.106;2023-07-02T05:11:19;99393.56;;;21.57;88.69
54978;BME280;40873;47.522;19.106;2023-07-02T05:13:46;99391.59;;;21.66;88.17
54978;BME280;40873;47.522;19.106;2023-07-02T05:16:14;99400.09;;;21.69;86.18
54978;BME280;40873;47.522;19.106;2023-07-02T05:18:41;99397.13;;;21.79;87.15
54978;BME280;40873;47.522;19.106;2023-07-02T05:21:08;99403.94;;;21.96;86.11
54978;BME280;40873;47.522;19.106;2023-07-02T05:23:35;99398.66;;;22.03;85.17
54978;BME280;40873;47.522;19.106;2023-07-02T05:26:02;99400.31;;;22.04;84.21
54978;BME280;40873;47.522;19.106;2023-07-02T05:28:29;99405.63;;;22.12;83.90
54978;BME280;40873;47.522;19.106;2023-07-02T05:30:56;99407.09;;;22.14;85.28
54978;BME280;40873;47.522;19.106;2023-07-02T05:33:23;99406.50;;;22.04;84.09
54978;BME280;40873;47.522;19.106;2023-07-02T05:35:51;99410.41;;;22.02;84.25
54978;BME280;40873;47.522;19.106;2023-07-02T05:38:18;99413.09;;;22.02;84.89
54978;BME280;40873;47.522;19.106;2023-07-02T05:40:46;99420.03;;;22.11;84.12
54978;BME280;40873;47.522;19.106;2023-07-02T05:43:13;99416.38;;;22.12;84.41
54978;BME280;40873;47.522;19.106;2023-07-02T05:45:41;99418.66;;;22.15;83.88
54978;BME280;40873;47.522;19.106;2023-07-02T05:48:07;99419.28;;;22.17;84.34
54978;BME280;40873;47.522;19.106;2023-07-02T05:50:35;99422.94;;;22.09;83.68
54978;BME280;40873;47.522;19.106;2023-07-02T05:53:02;99420.41;;;22.08;83.54
54978;BME280;40873;47.522;19.106;2023-07-02T05:55:29;99416.16;;;22.13;83.31
54978;BME280;40873;47.522;19.106;2023-07-02T05:57:56;99424.66;;;22.02;83.21
54978;BME280;40873;47.522;19.106;2023-07-02T06:00:29;99425.34;;;21.89;84.65
54978;BME280;40873;47.522;19.106;2023-07-02T06:02:56;99427.50;;;21.79;85.48
54978;BME280;40873;47.522;19.106;2023-07-02T06:05:23;99429.25;;;21.72;86.57
54978;BME280;40873;47.522;19.106;2023-07-02T06:07:50;99435.00;;;21.84;86.31
54978;BME280;40873;47.522;19.106;2023-07-02T06:10:17;99441.94;;;21.93;85.18
54978;BME280;40873;47.522;19.106;2023-07-02T06:12:45;99434.16;;;21.98;85.22
54978;BME280;40873;47.522;19.106;2023-07-02T06:15:12;99436.72;;;22.06;83.56
54978;BME280;40873;47.522;19.106;2023-07-02T06:17:39;99435.34;;;22.10;83.91
54978;BME280;40873;47.522;19.106;2023-07-02T06:20:06;99439.31;;;22.14;84.64
54978;BME280;40873;47.522;19.106;2023-07-02T06:22:34;99435.25;;;22.19;83.33
54978;BME280;40873;47.522;19.106;2023-07-02T06:25:01;99434.09;;;22.28;83.04
54978;BME280;40873;47.522;19.106;2023-07-02T06:27:31;99445.47;;;22.30;83.36
54978;BME280;40873;47.522;19.106;2023-07-02T06:29:58;99444.84;;;22.28;83.38
54978;BME280;40873;47.522;19.106;2023-07-02T06:32:26;99446.97;;;22.32;82.60
54978;BME280;40873;47.522;19.106;2023-07-02T06:34:53;99444.31;;;22.39;81.63
54978;BME280;40873;47.522;19.106;2023-07-02T06:37:20;99439.22;;;22.44;82.14
54978;BME280;40873;47.522;19.106;2023-07-02T06:39:47;99443.63;;;22.52;82.05
54978;BME280;40873;47.522;19.106;2023-07-02T06:42:14;99442.38;;;22.69;82.40
54978;BME280;40873;47.522;19.106;2023-07-02T06:44:41;99449.72;;;22.82;80.21
54978;BME280;40873;47.522;19.106;2023-07-02T06:47:08;99438.88;;;22.90;79.89
54978;BME280;40873;47.522;19.106;2023-07-02T06:52:03;99441.41;;;22.98;78.37
54978;BME280;40873;47.522;19.106;2023-07-02T06:54:30;99440.22;;;23.07;77.73
54978;BME280;40873;47.522;19.106;2023-07-02T06:56:57;99444.94;;;23.27;75.09
54978;BME280;40873;47.522;19.106;2023-07-02T06:59:24;99451.03;;;23.42;76.25
54978;BME280;40873;47.522;19.106;2023-07-02T07:01:51;99442.97;;;23.42;75.81
54978;BME280;40873;47.522;19.106;2023-07-02T07:04:18;99449.00;;;23.44;74.46
54978;BME280;40873;47.522;19.106;2023-07-02T07:06:45;99454.38;;;23.44;73.94
54978;BME280;40873;47.522;19.106;2023-07-02T07:09:13;99465.63;;;23.54;74.00
54978;BME280;40873;47.522;19.106;2023-07-02T07:11:40;99459.25;;;23.62;74.31
54978;BME280;40873;47.522;19.106;2023-07-02T07:14:07;99463.31;;;23.79;72.60
54978;BME280;40873;47.522;19.106;2023-07-02T07:16:34;99457.59;;;24.02;71.00
54978;BME280;40873;47.522;19.106;2023-07-02T07:19:01;99461.81;;;24.18;70.21
54978;BME280;40873;47.522;19.106;2023-07-02T07:21:28;99465.84;;;24.35;70.71
54978;BME280;40873;47.522;19.106;2023-07-02T07:23:55;99458.41;;;24.44;68.35
54978;BME280;40873;47.522;19.106;2023-07-02T07:26:22;99465.03;;;24.54;71.00
54978;BME280;40873;47.522;19.106;2023-07-02T07:28:49;99460.72;;;24.73;69.25
54978;BME280;40873;47.522;19.106;2023-07-02T07:31:16;99466.13;;;24.86;68.09
54978;BME280;40873;47.522;19.106;2023-07-02T07:33:43;99465.31;;;24.99;67.82
54978;BME280;40873;47.522;19.106;2023-07-02T07:36:10;99473.66;;;25.11;67.27
54978;BME280;40873;47.522;19.106;2023-07-02T07:38:37;99470.09;;;25.24;64.48
54978;BME280;40873;47.522;19.106;2023-07-02T07:41:04;99473.00;;;25.29;63.67
54978;BME280;40873;47.522;19.106;2023-07-02T07:43:32;99468.03;;;25.32;62.94
54978;BME280;40873;47.522;19.106;2023-07-02T07:45:58;99463.47;;;25.33;63.48
54978;BME280;40873;47.522;19.106;2023-07-02T07:48:26;99470.53;;;25.40;64.12
54978;BME280;40873;47.522;19.106;2023-07-02T07:50:53;99465.94;;;25.48;64.02
54978;BME280;40873;47.522;19.106;2023-07-02T07:53:20;99478.59;;;25.60;60.49
54978;BME280;40873;47.522;19.106;2023-07-02T07:55:47;99478.38;;;25.55;60.71
54978;BME280;40873;47.522;19.106;2023-07-02T07:58:14;99475.88;;;25.60;61.43
54978;BME280;40873;47.522;19.106;2023-07-02T08:00:41;99476.88;;;25.66;60.36
54978;BME280;40873;47.522;19.106;2023-07-02T08:03:10;99472.31;;;25.80;60.28
54978;BME280;40873;47.522;19.106;2023-07-02T08:05:36;99466.47;;;25.89;59.76
54978;BME280;40873;47.522;19.106;2023-07-02T08:08:04;99477.28;;;25.96;58.04
54978;BME280;40873;47.522;19.106;2023-07-02T08:10:31;99472.09;;;25.94;58.53
54978;BME280;40873;47.522;19.106;2023-07-02T08:12:58;99478.72;;;25.99;57.55
54978;BME280;40873;47.522;19.106;2023-07-02T08:15:24;99480.78;;;26.03;59.80
54978;BME280;40873;47.522;19.106;2023-07-02T08:17:52;99485.09;;;26.17;58.57
54978;BME280;40873;47.522;19.106;2023-07-02T08:20:21;99494.81;;;26.25;58.81
54978;BME280;40873;47.522;19.106;2023-07-02T08:22:49;99498.38;;;26.19;58.82
54978;BME280;40873;47.522;19.106;2023-07-02T08:25:18;99496.47;;;25.75;60.59
54978;BME280;40873;47.522;19.106;2023-07-02T08:27:46;99506.00;;;25.64;61.55
54978;BME280;40873;47.522;19.106;2023-07-02T08:30:13;99507.63;;;25.72;61.21
54978;BME280;40873;47.522;19.106;2023-07-02T08:32:40;99499.34;;;25.80;62.67
54978;BME280;40873;47.522;19.106;2023-07-02T08:35:08;99507.03;;;25.76;61.35
54978;BME280;40873;47.522;19.106;2023-07-02T08:37:35;99506.19;;;25.69;61.61
54978;BME280;40873;47.522;19.106;2023-07-02T08:40:02;99516.59;;;25.72;61.58
54978;BME280;40873;47.522;19.106;2023-07-02T08:42:32;99511.84;;;25.74;61.41
54978;BME280;40873;47.522;19.106;2023-07-02T08:45:00;99524.66;;;25.92;59.85
54978;BME280;40873;47.522;19.106;2023-07-02T08:47:27;99519.00;;;26.07;60.54
54978;BME280;40873;47.522;19.106;2023-07-02T08:49:54;99526.63;;;26.30;59.97
54978;BME280;40873;47.522;19.106;2023-07-02T08:52:22;99532.94;;;26.10;58.59
54978;BME280;40873;47.522;19.106;2023-07-02T08:54:49;99529.31;;;26.43;59.37
54978;BME280;40873;47.522;19.106;2023-07-02T08:57:16;99533.63;;;26.57;56.70
54978;BME280;40873;47.522;19.106;2023-07-02T08:59:43;99522.13;;;26.62;55.61
54978;BME280;40873;47.522;19.106;2023-07-02T09:02:10;99525.69;;;26.56;55.40
54978;BME280;40873;47.522;19.106;2023-07-02T09:04:37;99535.03;;;26.60;53.93
54978;BME280;40873;47.522;19.106;2023-07-02T09:07:09;99542.59;;;26.51;54.20
54978;BME280;40873;47.522;19.106;2023-07-02T09:09:49;99544.56;;;26.17;54.55
54978;BME280;40873;47.522;19.106;2023-07-02T09:12:27;99545.88;;;26.02;55.01
54978;BME280;40873;47.522;19.106;2023-07-02T09:17:33;99541.94;;;25.84;55.99
54978;BME280;40873;47.522;19.106;2023-07-02T09:20:03;99546.13;;;25.74;56.67
54978;BME280;40873;47.522;19.106;2023-07-02T09:22:36;99543.81;;;25.64;57.97
54978;BME280;40873;47.522;19.106;2023-07-02T09:25:03;99543.59;;;25.79;57.62
54978;BME280;40873;47.522;19.106;2023-07-02T09:30:09;99531.81;;;26.31;56.53
54978;BME280;40873;47.522;19.106;2023-07-02T09:32:36;99535.91;;;26.54;57.99
54978;BME280;40873;47.522;19.106;2023-07-02T09:35:05;99531.56;;;26.84;58.20
54978;BME280;40873;47.522;19.106;2023-07-02T09:37:32;99531.19;;;26.81;53.44
54978;BME280;40873;47.522;19.106;2023-07-02T09:40:00;99522.75;;;26.64;55.58
54978;BME280;40873;47.522;19.106;2023-07-02T09:42:28;99537.16;;;26.89;56.22
54978;BME280;40873;47.522;19.106;2023-07-02T09:44:58;99517.97;;;26.91;55.57
54978;BME280;40873;47.522;19.106;2023-07-02T09:47:26;99519.91;;;26.84;55.13
54978;BME280;40873;47.522;19.106;2023-07-02T09:49:57;99522.69;;;27.02;55.45
54978;BME280;40873;47.522;19.106;2023-07-02T09:52:25;99517.13;;;27.28;54.58
54978;BME280;40873;47.522;19.106;2023-07-02T09:54:53;99531.91;;;27.51;55.39
54978;BME280;40873;47.522;19.106;2023-07-02T09:57:20;99527.50;;;27.56;51.20
54978;BME280;40873;47.522;19.106;2023-07-02T09:59:47;99531.50;;;27.54;48.12
54978;BME280;40873;47.522;19.106;2023-07-02T10:02:15;99530.25;;;27.50;48.66
54978;BME280;40873;47.522;19.106;2023-07-02T10:04:44;99531.53;;;27.47;48.30
54978;BME280;40873;47.522;19.106;2023-07-02T10:07:25;99530.63;;;27.53;48.74
54978;BME280;40873;47.522;19.106;2023-07-02T10:09:52;99531.19;;;27.62;48.50
54978;BME280;40873;47.522;19.106;2023-07-02T10:12:27;99521.75;;;27.71;50.62
54978;BME280;40873;47.522;19.106;2023-07-02T10:14:56;99531.34;;;27.92;51.64
54978;BME280;40873;47.522;19.106;2023-07-02T10:19:52;99525.81;;;27.80;47.38
54978;BME280;40873;47.522;19.106;2023-07-02T10:22:20;99523.63;;;27.71;46.18
54978;BME280;40873;47.522;19.106;2023-07-02T10:24:58;99533.69;;;27.89;47.48
54978;BME280;40873;47.522;19.106;2023-07-02T10:27:40;99533.22;;;28.10;47.02
54978;BME280;40873;47.522;19.106;2023-07-02T10:30:09;99522.53;;;27.97;47.44
54978;BME280;40873;47.522;19.106;2023-07-02T10:32:37;99519.88;;;28.08;47.51
54978;BME280;40873;47.522;19.106;2023-07-02T10:35:15;99531.84;;;28.01;47.55
54978;BME280;40873;47.522;19.106;2023-07-02T10:37:43;99517.63;;;28.05;47.72
54978;BME280;40873;47.522;19.106;2023-07-02T10:40:11;99531.16;;;28.30;47.86
54978;BME280;40873;47.522;19.106;2023-07-02T10:45:13;99508.38;;;28.31;46.92
54978;BME280;40873;47.522;19.106;2023-07-02T10:47:40;99515.28;;;28.46;48.51
54978;BME280;40873;47.522;19.106;2023-07-02T10:50:19;99517.94;;;28.64;49.88
54978;BME280;40873;47.522;19.106;2023-07-02T10:52:47;99513.47;;;28.70;48.43
54978;BME280;40873;47.522;19.106;2023-07-02T10:55:18;99522.16;;;28.90;46.66
54978;BME280;40873;47.522;19.106;2023-07-02T10:57:46;99511.88;;;28.50;46.28
54978;BME280;40873;47.522;19.106;2023-07-02T11:00:14;99510.41;;;28.66;45.93
54978;BME280;40873;47.522;19.106;2023-07-02T11:02:41;99508.94;;;28.52;46.03
54978;BME280;40873;47.522;19.106;2023-07-02T11:05:09;99507.28;;;28.81;47.13
54978;BME280;40873;47.522;19.106;2023-07-02T11:07:43;99515.19;;;28.82;48.25
54978;BME280;40873;47.522;19.106;2023-07-02T11:10:17;99512.16;;;28.60;47.83
54978;BME280;40873;47.522;19.106;2023-07-02T11:12:45;99497.44;;;28.68;47.47
54978;BME280;40873;47.522;19.106;2023-07-02T11:15:14;99511.59;;;28.70;47.98
54978;BME280;40873;47.522;19.106;2023-07-02T11:17:41;99502.09;;;28.79;47.84
54978;BME280;40873;47.522;19.106;2023-07-02T11:20:10;99495.13;;;28.83;47.04
54978;BME280;40873;47.522;19.106;2023-07-02T11:22:38;99497.56;;;29.03;48.69
54978;BME280;40873;47.522;19.106;2023-07-02T11:25:13;99502.56;;;28.88;45.69
54978;BME280;40873;47.522;19.106;2023-07-02T11:27:41;99504.88;;;29.03;43.81
54978;BME280;40873;47.522;19.106;2023-07-02T11:30:09;99499.34;;;29.09;45.01
54978;BME280;40873;47.522;19.106;2023-07-02T11:32:53;99505.97;;;29.25;42.36
54978;BME280;40873;47.522;19.106;2023-07-02T11:35:22;99506.44;;;28.80;42.65
54978;BME280;40873;47.522;19.106;2023-07-02T11:37:49;99504.19;;;29.07;42.58
54978;BME280;40873;47.522;19.106;2023-07-02T11:40:17;99507.84;;;29.01;42.93
54978;BME280;40873;47.522;19.106;2023-07-02T11:42:44;99502.63;;;29.11;42.95
54978;BME280;40873;47.522;19.106;2023-07-02T11:45:12;99515.59;;;28.98;42.88
54978;BME280;40873;47.522;19.106;2023-07-02T11:47:38;99507.09;;;28.64;43.12
54978;BME280;40873;47.522;19.106;2023-07-02T11:50:07;99507.91;;;28.64;44.14
54978;BME280;40873;47.522;19.106;2023-07-02T11:52:50;99497.97;;;28.88;44.38
54978;BME280;40873;47.522;19.106;2023-07-02T11:55:17;99510.97;;;28.86;44.62
54978;BME280;40873;47.522;19.106;2023-07-02T11:57:44;99492.13;;;29.03;43.55
54978;BME280;40873;47.522;19.106;2023-07-02T12:00:14;99514.09;;;29.13;43.05
54978;BME280;40873;47.522;19.106;2023-07-02T12:02:41;99503.03;;;28.85;43.79
54978;BME280;40873;47.522;19.106;2023-07-02T12:05:08;99506.50;;;28.92;41.84
54978;BME280;40873;47.522;19.106;2023-07-02T12:07:38;99510.00;;;29.23;41.67
54978;BME280;40873;47.522;19.106;2023-07-02T12:10:07;99510.63;;;29.60;41.02
54978;BME280;40873;47.522;19.106;2023-07-02T12:12:34;99498.19;;;29.87;40.02
54978;BME280;40873;47.522;19.106;2023-07-02T12:15:02;99503.13;;;30.14;40.34
54978;BME280;40873;47.522;19.106;2023-07-02T12:17:29;99492.94;;;30.21;41.48
54978;BME280;40873;47.522;19.106;2023-07-02T12:19:57;99498.56;;;29.79;40.58
54978;BME280;40873;47.522;19.106;2023-07-02T12:22:24;99500.00;;;29.58;41.73
54978;BME280;40873;47.522;19.106;2023-07-02T12:24:51;99500.69;;;29.42;41.80
54978;BME280;40873;47.522;19.106;2023-07-02T12:27:20;99499.22;;;29.28;41.87
54978;BME280;40873;47.522;19.106;2023-07-02T12:29:47;99491.34;;;29.73;43.88
54978;BME280;40873;47.522;19.106;2023-07-02T12:32:15;99494.97;;;30.02;42.10
54978;BME280;40873;47.522;19.106;2023-07-02T12:34:42;99509.81;;;29.71;42.88
54978;BME280;40873;47.522;19.106;2023-07-02T12:37:09;99508.13;;;29.82;42.50
54978;BME280;40873;47.522;19.106;2023-07-02T12:39:36;99504.13;;;29.61;44.03
54978;BME280;40873;47.522;19.106;2023-07-02T12:42:03;99491.41;;;30.01;44.01
54978;BME280;40873;47.522;19.106;2023-07-02T12:44:31;99493.66;;;30.16;45.90
54978;BME280;40873;47.522;19.106;2023-07-02T12:46:58;99491.88;;;30.10;43.05
54978;BME280;40873;47.522;19.106;2023-07-02T12:49:25;99490.34;;;30.02;44.05
54978;BME280;40873;47.522;19.106;2023-07-02T12:51:52;99485.31;;;30.35;41.35
54978;BME280;40873;47.522;19.106;2023-07-02T12:54:19;99493.31;;;29.89;41.08
54978;BME280;40873;47.522;19.106;2023-07-02T12:56:46;99497.59;;;29.85;42.80
54978;BME280;40873;47.522;19.106;2023-07-02T12:59:14;99503.00;;;30.20;42.89
54978;BME280;40873;47.522;19.106;2023-07-02T13:01:41;99503.47;;;30.17;40.44
54978;BME280;40873;47.522;19.106;2023-07-02T13:04:08;99497.31;;;30.22;41.70